Time;durP1;ratioP1;P1;durP2;ratioP2;P2;SDS_P1;SDS_P2;PMS_P1;PMS_P2;Temp;Humidity;BMP_temperature;BMP_pressure;BME280_temperature;BME280_humidity;BME280_pressure;Samples;Min_cycle;Max_cycle;Signal;HPM_P1;HPM_P2
2023/07/23 00:01:07;;;;;;;8.60;7.80;;;14.30;99.90;;;;;;4959960;28;20478;-58
2023/07/23 00:03:35;;;;;;;8.77;7.63;;;14.40;99.90;;;;;;4966547;28;20474;-58
2023/07/23 00:06:04;;;;;;;9.30;8.20;;;14.30;99.90;;;;;;4965573;28;20501;-57
2023/07/23 00:08:33;;;;;;;8.80;8.00;;;14.30;99.90;;;;;;4964294;28;21094;-57
2023/07/23 00:11:00;;;;;;;8.50;7.73;;;14.30;99.90;;;;;;4963955;28;22151;-57
2023/07/23 00:13:30;;;;;;;9.37;8.43;;;14.30;99.90;;;;;;4959007;28;20505;-61
2023/07/23 00:15:59;;;;;;;9.23;8.43;;;14.30;99.90;;;;;;4962590;28;21088;-59
2023/07/23 00:18:27;;;;;;;8.47;7.67;;;14.30;99.90;;;;;;4958318;28;20540;-58
2023/07/23 00:20:55;;;;;;;8.67;7.93;;;14.30;99.90;;;;;;4955644;28;20666;-58
2023/07/23 00:23:23;;;;;;;9.03;8.23;;;14.30;99.90;;;;;;4953824;28;20585;-57
2023/07/23 00:25:51;;;;;;;9.40;8.50;;;14.30;99.90;;;;;;4960746;28;20615;-58
2023/07/23 00:28:19;;;;;;;9.90;8.90;;;14.30;99.90;;;;;;4960163;28;20573;-58
2023/07/23 00:30:49;;;;;;;9.60;8.57;;;14.30;99.90;;;;;;4960455;28;20569;-58
2023/07/23 00:33:20;;;;;;;9.77;8.87;;;14.40;99.90;;;;;;4960283;28;20473;-58
2023/07/23 00:35:48;;;;;;;10.03;9.13;;;14.40;99.90;;;;;;4955888;28;20537;-57
2023/07/23 00:38:16;;;;;;;9.93;8.93;;;14.40;99.90;;;;;;4955341;28;20593;-58
2023/07/23 00:40:44;;;;;;;10.53;9.47;;;14.40;99.90;;;;;;4961344;28;20471;-58
2023/07/23 00:43:12;;;;;;;10.87;9.77;;;14.40;99.90;;;;;;4964239;28;20658;-58
2023/07/23 00:45:40;;;;;;;10.57;9.67;;;14.50;99.90;;;;;;4962964;28;20581;-58
2023/07/23 00:48:10;;;;;;;10.93;9.83;;;14.50;99.90;;;;;;4963141;28;21045;-58
2023/07/23 00:50:38;;;;;;;11.13;10.17;;;14.50;99.90;;;;;;4963944;28;20485;-58
2023/07/23 00:53:06;;;;;;;11.27;10.23;;;14.50;99.90;;;;;;4961306;28;20510;-58
2023/07/23 00:55:34;;;;;;;11.43;10.33;;;14.50;99.90;;;;;;4965795;28;20569;-58
2023/07/23 00:58:03;;;;;;;11.93;10.93;;;14.50;99.90;;;;;;4954317;28;21102;-58
2023/07/23 01:00:30;;;;;;;11.37;10.27;;;14.50;99.90;;;;;;4962482;28;20581;-58
2023/07/23 01:02:59;;;;;;;12.20;11.10;;;14.50;99.90;;;;;;4968895;28;20469;-58
2023/07/23 01:05:30;;;;;;;12.73;11.57;;;14.50;99.90;;;;;;4964815;28;20983;-58
2023/07/23 01:07:59;;;;;;;13.27;11.90;;;14.50;99.90;;;;;;4963874;28;21538;-58
2023/07/23 01:10:27;;;;;;;12.80;11.60;;;14.50;99.90;;;;;;4962927;28;20531;-58
2023/07/23 01:12:56;;;;;;;13.37;11.97;;;14.40;99.90;;;;;;4958038;28;20553;-58
2023/07/23 01:15:24;;;;;;;14.27;12.93;;;14.40;99.90;;;;;;4960616;28;20494;-57
2023/07/23 01:17:53;;;;;;;14.40;12.87;;;14.40;99.90;;;;;;4961072;28;21583;-58
2023/07/23 01:20:21;;;;;;;12.83;11.63;;;14.50;99.90;;;;;;4964357;28;20874;-58
2023/07/23 01:22:51;;;;;;;14.77;13.27;;;14.50;99.90;;;;;;4959404;28;21028;-57
2023/07/23 01:25:19;;;;;;;13.20;12.00;;;14.50;99.90;;;;;;4961732;28;20612;-58
2023/07/23 01:27:47;;;;;;;13.97;12.67;;;14.50;99.90;;;;;;4958675;28;21117;-58
2023/07/23 01:30:15;;;;;;;13.63;12.43;;;14.50;99.90;;;;;;4945560;28;21327;-58
2023/07/23 01:32:43;;;;;;;13.90;12.60;;;14.50;99.90;;;;;;4943426;28;20474;-58
2023/07/23 01:35:14;;;;;;;14.07;12.57;;;14.60;99.90;;;;;;4938602;28;20504;-57
2023/07/23 01:37:43;;;;;;;15.10;13.60;;;14.50;99.90;;;;;;4939813;28;20963;-58
2023/07/23 01:40:13;;;;;;;14.57;13.23;;;14.50;99.90;;;;;;4940716;28;20471;-57
2023/07/23 01:42:43;;;;;;;14.63;13.20;;;14.60;99.90;;;;;;4959157;28;20588;-58
2023/07/23 01:45:11;;;;;;;16.73;15.23;;;14.50;99.90;;;;;;4964226;28;20498;-58
2023/07/23 01:47:39;;;;;;;14.80;13.50;;;14.60;99.90;;;;;;4966837;28;21082;-58
2023/07/23 01:50:08;;;;;;;14.53;13.23;;;14.50;99.90;;;;;;4967048;28;20480;-58
2023/07/23 01:52:36;;;;;;;14.73;13.33;;;14.50;99.90;;;;;;4964439;28;20478;-58
2023/07/23 01:55:12;;;;;;;15.23;13.90;;;14.50;99.90;;;;;;5105880;27;20988;-58
2023/07/23 01:57:40;;;;;;;15.03;13.43;;;14.50;99.90;;;;;;5075981;27;20482;-57
2023/07/23 02:00:09;;;;;;;15.77;14.00;;;14.60;99.90;;;;;;5051000;28;20553;-58
2023/07/23 02:02:37;;;;;;;15.57;14.13;;;14.60;99.90;;;;;;5047762;28;20482;-59
2023/07/23 02:05:06;;;;;;;14.77;13.33;;;14.50;99.90;;;;;;5053026;28;20502;-60
2023/07/23 02:07:34;;;;;;;15.10;13.70;;;14.50;99.90;;;;;;5051356;28;20891;-58
2023/07/23 02:10:03;;;;;;;15.10;13.67;;;14.60;99.90;;;;;;5049273;28;20565;-59
2023/07/23 02:12:33;;;;;;;14.93;13.30;;;14.60;99.90;;;;;;5051159;28;20582;-58
2023/07/23 02:15:01;;;;;;;15.73;14.13;;;14.60;99.90;;;;;;5048090;28;20518;-58
2023/07/23 02:17:29;;;;;;;15.20;13.90;;;14.60;99.90;;;;;;5047902;28;20629;-58
2023/07/23 02:19:58;;;;;;;15.27;13.93;;;14.60;99.90;;;;;;5050055;28;20524;-58
2023/07/23 02:22:26;;;;;;;15.50;14.00;;;14.60;99.90;;;;;;5047665;28;20557;-58
2023/07/23 02:24:54;;;;;;;15.83;14.40;;;14.60;99.90;;;;;;5051376;28;20589;-58
2023/07/23 02:27:22;;;;;;;15.57;14.23;;;14.70;99.90;;;;;;5052410;28;20486;-58
2023/07/23 02:29:51;;;;;;;15.43;14.03;;;14.70;99.90;;;;;;5051553;28;20469;-58
2023/07/23 02:32:19;;;;;;;14.33;13.03;;;14.60;99.90;;;;;;5050602;28;20509;-58
2023/07/23 02:34:47;;;;;;;16.60;15.00;;;14.70;99.90;;;;;;5044810;28;20611;-60
2023/07/23 02:37:15;;;;;;;16.00;13.80;;;14.70;99.90;;;;;;5050767;28;20522;-59
2023/07/23 02:39:43;;;;;;;15.53;13.93;;;14.70;99.90;;;;;;5050718;28;20558;-59
2023/07/23 02:42:11;;;;;;;14.20;12.80;;;14.70;99.90;;;;;;5050362;28;20501;-59
2023/07/23 02:44:39;;;;;;;15.43;14.03;;;14.80;99.90;;;;;;5050989;28;20599;-59
2023/07/23 02:47:08;;;;;;;15.00;13.60;;;14.80;99.90;;;;;;5045313;28;20502;-59
2023/07/23 02:49:38;;;;;;;16.17;14.80;;;14.70;99.90;;;;;;5047583;28;20520;-59
2023/07/23 02:52:06;;;;;;;15.53;14.13;;;14.70;99.90;;;;;;5049568;28;20525;-59
2023/07/23 02:54:34;;;;;;;15.70;14.20;;;14.70;99.90;;;;;;5050596;28;20914;-59
2023/07/23 02:57:02;;;;;;;13.40;12.23;;;14.70;99.90;;;;;;5049654;28;20467;-59
2023/07/23 02:59:30;;;;;;;13.60;12.20;;;14.80;99.90;;;;;;5052982;28;20474;-59
2023/07/23 03:01:58;;;;;;;14.33;13.10;;;14.80;99.90;;;;;;5050008;28;20943;-58
2023/07/23 03:04:29;;;;;;;14.50;13.20;;;14.80;99.90;;;;;;5045297;28;20498;-59
2023/07/23 03:06:57;;;;;;;14.57;13.17;;;14.90;99.90;;;;;;5032061;28;20471;-58
2023/07/23 03:09:25;;;;;;;14.40;13.07;;;14.90;99.90;;;;;;5036847;28;20499;-58
2023/07/23 03:11:53;;;;;;;13.87;12.57;;;14.80;99.90;;;;;;5032701;28;20477;-59
2023/07/23 03:14:21;;;;;;;14.30;13.00;;;14.80;99.90;;;;;;5029508;28;20497;-59
2023/07/23 03:16:49;;;;;;;14.07;12.67;;;14.90;99.90;;;;;;5031818;28;22005;-59
2023/07/23 03:19:16;;;;;;;14.37;13.17;;;14.90;99.90;;;;;;5034307;28;20507;-58
2023/07/23 03:21:46;;;;;;;15.87;14.37;;;14.80;99.90;;;;;;5030111;28;21162;-58
2023/07/23 03:24:14;;;;;;;14.00;12.70;;;14.80;99.90;;;;;;5028812;28;21008;-58
2023/07/23 03:26:42;;;;;;;14.00;12.70;;;14.80;99.90;;;;;;5032275;28;20581;-58
2023/07/23 03:29:10;;;;;;;14.90;13.40;;;14.80;99.90;;;;;;5031436;28;20499;-58
2023/07/23 03:31:38;;;;;;;14.27;12.87;;;14.80;99.90;;;;;;5032242;28;20477;-59
2023/07/23 03:34:06;;;;;;;14.00;12.70;;;14.80;99.90;;;;;;5033209;28;20478;-58
2023/07/23 03:36:34;;;;;;;13.77;12.37;;;14.80;99.90;;;;;;5029930;28;20495;-59
2023/07/23 03:39:03;;;;;;;13.87;12.47;;;14.80;99.90;;;;;;5026889;28;20577;-58
2023/07/23 03:41:31;;;;;;;14.80;13.30;;;14.70;99.90;;;;;;5035055;28;20567;-59
2023/07/23 03:43:59;;;;;;;15.30;13.90;;;14.70;99.90;;;;;;5030958;28;20976;-58
2023/07/23 03:46:27;;;;;;;14.53;12.90;;;14.70;99.90;;;;;;5031013;28;20490;-59
2023/07/23 03:48:55;;;;;;;14.30;13.00;;;14.70;99.90;;;;;;5027053;28;21699;-59
2023/07/23 03:51:23;;;;;;;13.90;12.60;;;14.70;99.90;;;;;;5028919;28;20586;-58
2023/07/23 03:53:51;;;;;;;13.73;12.53;;;14.70;99.90;;;;;;5029059;28;20476;-59
2023/07/23 03:56:21;;;;;;;14.13;12.93;;;14.60;99.90;;;;;;5031785;28;20524;-59
2023/07/23 03:58:49;;;;;;;13.03;11.90;;;14.70;99.90;;;;;;5026689;28;20994;-59
2023/07/23 04:01:16;;;;;;;14.67;13.37;;;14.70;99.90;;;;;;5032044;28;20499;-59
2023/07/23 04:03:45;;;;;;;14.77;13.27;;;14.70;99.90;;;;;;5031615;28;20470;-59
2023/07/23 04:06:13;;;;;;;13.40;12.20;;;14.80;99.90;;;;;;5032575;28;20501;-59
2023/07/23 04:08:41;;;;;;;14.93;13.53;;;14.80;99.90;;;;;;5029738;28;20487;-59
2023/07/23 04:11:09;;;;;;;15.40;13.27;;;14.80;99.90;;;;;;5035594;28;20841;-59
2023/07/23 04:13:39;;;;;;;14.37;12.87;;;14.80;99.90;;;;;;5035251;28;20513;-59
2023/07/23 04:16:11;;;;;;;14.47;13.17;;;14.70;99.90;;;;;;5033380;28;20487;-59
2023/07/23 04:18:46;;;;;;;14.23;12.93;;;14.70;99.90;;;;;;5029982;28;20990;-58
2023/07/23 04:21:14;;;;;;;12.67;11.40;;;14.80;99.90;;;;;;5032863;28;20562;-58
2023/07/23 04:23:46;;;;;;;13.20;12.00;;;14.80;99.90;;;;;;5032148;28;20605;-59
2023/07/23 04:26:14;;;;;;;13.90;12.60;;;14.80;99.90;;;;;;5031430;28;20506;-59
2023/07/23 04:28:44;;;;;;;13.63;12.33;;;14.80;99.90;;;;;;5031217;28;20491;-59
2023/07/23 04:31:12;;;;;;;13.60;12.20;;;14.80;99.90;;;;;;5034359;28;22107;-59
2023/07/23 04:33:41;;;;;;;13.70;12.60;;;14.80;99.90;;;;;;5031767;28;20510;-59
2023/07/23 04:36:09;;;;;;;15.17;13.67;;;14.80;99.90;;;;;;5033208;28;20553;-58
2023/07/23 04:38:37;;;;;;;13.57;12.20;;;14.80;99.90;;;;;;5028373;28;20491;-58
2023/07/23 04:41:05;;;;;;;13.77;12.50;;;14.80;99.90;;;;;;5028155;28;20471;-58
2023/07/23 04:43:35;;;;;;;13.40;12.00;;;14.70;99.90;;;;;;5035226;28;20485;-59
2023/07/23 04:46:05;;;;;;;13.03;11.83;;;14.80;99.90;;;;;;5034846;28;20606;-58
2023/07/23 04:48:34;;;;;;;12.73;11.53;;;14.80;99.90;;;;;;5028605;28;20606;-58
2023/07/23 04:51:04;;;;;;;14.83;11.60;;;14.80;99.90;;;;;;5032680;28;21273;-59
2023/07/23 04:53:33;;;;;;;13.23;11.47;;;14.80;99.90;;;;;;5036569;28;20559;-58
2023/07/23 04:56:03;;;;;;;12.27;11.10;;;14.80;99.90;;;;;;5030363;28;20524;-58
2023/07/23 04:58:32;;;;;;;12.63;10.20;;;14.80;99.90;;;;;;5032027;28;20565;-58
2023/07/23 05:01:09;;;;;;;12.10;10.90;;;14.80;99.90;;;;;;5030058;28;20470;-59
2023/07/23 05:03:38;;;;;;;12.57;11.20;;;14.80;99.90;;;;;;5029832;28;20849;-59
2023/07/23 05:06:07;;;;;;;11.13;10.03;;;14.70;99.90;;;;;;5034871;28;20525;-59
2023/07/23 05:08:35;;;;;;;12.30;10.27;;;14.70;99.90;;;;;;5031562;28;20489;-58
2023/07/23 05:11:04;;;;;;;11.43;10.37;;;14.70;99.90;;;;;;5035012;28;20470;-58
2023/07/23 05:13:34;;;;;;;11.30;10.30;;;14.70;99.90;;;;;;5029180;28;20489;-58
2023/07/23 05:16:03;;;;;;;11.17;10.10;;;14.70;99.90;;;;;;5032395;28;20922;-58
2023/07/23 05:18:33;;;;;;;11.17;10.03;;;14.70;99.90;;;;;;5030635;28;20494;-58
2023/07/23 05:21:02;;;;;;;11.67;10.57;;;14.70;99.90;;;;;;5033062;28;20493;-58
2023/07/23 05:23:31;;;;;;;10.40;9.50;;;14.70;99.90;;;;;;5036113;28;20467;-59
2023/07/23 05:25:59;;;;;;;10.07;8.80;;;14.70;99.90;;;;;;5033800;28;20498;-58
2023/07/23 05:28:26;;;;;;;11.20;10.10;;;14.70;99.90;;;;;;5032400;28;20570;-58
2023/07/23 05:30:58;;;;;;;11.60;10.50;;;14.80;99.90;;;;;;5032720;28;20474;-59
2023/07/23 05:33:26;;;;;;;10.13;8.97;;;14.80;99.90;;;;;;5030921;28;21000;-59
2023/07/23 05:35:55;;;;;;;9.30;8.40;;;14.90;99.90;;;;;;5032245;28;20494;-58
2023/07/23 05:38:25;;;;;;;9.80;8.90;;;14.90;99.90;;;;;;5028243;28;20583;-58
2023/07/23 05:40:57;;;;;;;9.10;8.40;;;14.90;99.90;;;;;;5029908;28;20468;-58
2023/07/23 05:43:25;;;;;;;8.97;8.17;;;14.90;99.90;;;;;;5032114;28;20467;-58
2023/07/23 05:45:56;;;;;;;9.17;8.37;;;14.90;99.90;;;;;;5028586;28;20987;-58
2023/07/23 05:48:24;;;;;;;9.73;8.83;;;14.90;99.90;;;;;;5027866;28;20578;-59
2023/07/23 05:50:52;;;;;;;10.50;9.50;;;14.80;99.90;;;;;;5029976;28;20509;-58
2023/07/23 05:53:22;;;;;;;10.50;9.00;;;14.80;99.90;;;;;;5033598;28;20849;-58
2023/07/23 05:55:50;;;;;;;9.70;8.70;;;14.90;99.90;;;;;;5029289;28;20490;-59
2023/07/23 05:58:18;;;;;;;10.00;7.80;;;14.80;99.90;;;;;;5030096;28;23742;-59
2023/07/23 06:00:46;;;;;;;8.20;7.50;;;14.80;99.90;;;;;;5028114;28;20471;-58
2023/07/23 06:03:14;;;;;;;9.57;8.57;;;14.80;99.90;;;;;;5028350;28;20473;-59
2023/07/23 06:05:42;;;;;;;9.47;8.60;;;14.90;99.90;;;;;;5032862;28;20479;-59
2023/07/23 06:08:10;;;;;;;8.50;7.50;;;14.90;99.90;;;;;;5026172;28;20503;-60
2023/07/23 06:10:39;;;;;;;11.23;8.30;;;14.90;99.90;;;;;;5030609;28;20630;-59
2023/07/23 06:13:07;;;;;;;9.73;7.27;;;14.90;99.90;;;;;;5032799;28;20545;-58
2023/07/23 06:15:35;;;;;;;8.20;7.40;;;14.90;99.90;;;;;;5026903;28;20487;-59
2023/07/23 06:18:03;;;;;;;8.23;7.53;;;14.90;99.90;;;;;;5027229;28;20502;-58
2023/07/23 06:20:32;;;;;;;8.87;8.00;;;14.90;99.90;;;;;;5030127;28;20861;-58
2023/07/23 06:23:00;;;;;;;7.80;7.20;;;14.90;99.90;;;;;;5029280;28;20479;-58
2023/07/23 06:25:28;;;;;;;8.80;8.00;;;15.00;99.90;;;;;;5027987;28;20502;-58
2023/07/23 06:27:57;;;;;;;9.17;8.37;;;14.90;99.90;;;;;;5027167;28;20570;-58
2023/07/23 06:30:25;;;;;;;9.47;8.43;;;14.90;99.90;;;;;;5031391;28;20470;-58
2023/07/23 06:32:53;;;;;;;8.50;7.70;;;15.00;99.90;;;;;;5026790;28;20543;-57
2023/07/23 06:35:21;;;;;;;9.17;8.10;;;15.00;99.90;;;;;;5034319;28;20921;-58
2023/07/23 06:37:49;;;;;;;7.87;7.00;;;15.00;99.90;;;;;;5024924;28;20487;-58
2023/07/23 06:40:17;;;;;;;8.17;7.37;;;15.10;99.90;;;;;;5028078;28;20554;-58
2023/07/23 06:42:46;;;;;;;9.17;8.33;;;15.10;99.90;;;;;;5037153;28;20493;-58
2023/07/23 06:45:15;;;;;;;9.13;8.27;;;15.10;99.90;;;;;;5032609;28;20581;-58
2023/07/23 06:47:43;;;;;;;8.37;7.57;;;15.10;99.90;;;;;;5032859;28;20505;-58
2023/07/23 06:50:14;;;;;;;8.73;7.93;;;15.20;99.90;;;;;;5032237;28;20482;-58
2023/07/23 06:52:42;;;;;;;8.70;8.00;;;15.20;99.90;;;;;;5033146;28;20961;-58
2023/07/23 06:55:10;;;;;;;8.43;7.73;;;15.20;99.90;;;;;;5027374;28;21093;-59
2023/07/23 06:57:39;;;;;;;7.70;7.00;;;15.30;99.90;;;;;;5032041;28;20566;-59
2023/07/23 07:00:08;;;;;;;7.87;7.07;;;15.30;99.90;;;;;;5033488;28;20898;-59
2023/07/23 07:02:37;;;;;;;8.67;7.83;;;15.40;99.90;;;;;;5026242;28;20549;-59
2023/07/23 07:05:06;;;;;;;8.60;7.90;;;15.40;99.90;;;;;;5018258;28;20483;-59
2023/07/23 07:07:35;;;;;;;8.00;7.23;;;15.50;99.90;;;;;;5031652;28;20553;-59
2023/07/23 07:10:03;;;;;;;8.30;7.50;;;15.50;99.90;;;;;;5024068;28;20482;-59
2023/07/23 07:12:31;;;;;;;9.73;8.80;;;15.60;99.90;;;;;;5018315;28;20478;-60
2023/07/23 07:14:59;;;;;;;8.87;8.07;;;15.60;99.90;;;;;;5034224;28;20510;-59
2023/07/23 07:17:27;;;;;;;9.70;8.10;;;15.60;99.90;;;;;;5024091;28;21889;-59
2023/07/23 07:19:56;;;;;;;9.03;8.23;;;15.60;99.90;;;;;;5033480;28;20494;-59
2023/07/23 07:22:24;;;;;;;9.90;9.00;;;15.60;99.90;;;;;;5028896;28;20951;-58
2023/07/23 07:24:52;;;;;;;9.40;8.40;;;15.60;99.90;;;;;;5033966;28;20605;-59
2023/07/23 07:27:20;;;;;;;10.00;9.10;;;15.60;99.90;;;;;;5021375;28;20858;-59
2023/07/23 07:29:48;;;;;;;10.50;9.50;;;15.70;99.90;;;;;;5019440;28;20964;-59
2023/07/23 07:32:16;;;;;;;9.47;8.50;;;15.70;99.90;;;;;;5030719;28;20474;-59
2023/07/23 07:34:44;;;;;;;9.50;8.60;;;15.70;99.90;;;;;;5033979;28;20495;-59
2023/07/23 07:37:13;;;;;;;9.53;8.73;;;15.70;99.90;;;;;;5032107;28;20578;-58
2023/07/23 07:39:41;;;;;;;9.87;9.07;;;15.60;99.90;;;;;;5027338;28;20597;-59
2023/07/23 07:42:09;;;;;;;10.20;9.30;;;15.60;99.90;;;;;;5028825;28;20573;-59
2023/07/23 07:44:37;;;;;;;10.30;9.03;;;15.70;99.90;;;;;;5032142;28;20576;-59
2023/07/23 07:47:06;;;;;;;10.60;9.70;;;15.70;99.90;;;;;;5030527;28;20487;-58
2023/07/23 07:49:34;;;;;;;10.10;9.20;;;15.70;99.90;;;;;;5022286;28;20468;-59
2023/07/23 07:52:02;;;;;;;10.63;9.63;;;15.80;99.90;;;;;;5020121;28;21384;-59
2023/07/23 07:54:31;;;;;;;10.87;9.77;;;15.90;99.90;;;;;;5018018;28;20498;-59
2023/07/23 07:57:00;;;;;;;10.50;9.57;;;15.90;99.90;;;;;;5021241;28;20476;-58
2023/07/23 07:59:29;;;;;;;10.30;9.40;;;15.90;99.90;;;;;;5031851;28;20475;-58
2023/07/23 08:01:58;;;;;;;11.00;9.90;;;15.90;99.90;;;;;;5033426;28;20563;-58
2023/07/23 08:04:27;;;;;;;10.47;9.57;;;15.90;99.90;;;;;;5004630;28;20481;-58
2023/07/23 08:06:56;;;;;;;9.97;9.17;;;16.00;99.90;;;;;;5022545;28;20502;-58
2023/07/23 08:09:25;;;;;;;10.93;9.93;;;16.00;99.90;;;;;;5017998;28;20463;-58
2023/07/23 08:11:56;;;;;;;10.23;9.23;;;16.10;99.90;;;;;;5019502;28;20467;-58
2023/07/23 08:14:25;;;;;;;11.10;9.43;;;16.10;99.90;;;;;;5019056;28;20967;-57
2023/07/23 08:16:54;;;;;;;11.07;9.90;;;16.20;99.90;;;;;;5008608;28;20482;-58
2023/07/23 08:19:23;;;;;;;10.97;9.90;;;16.20;99.90;;;;;;5019687;28;20467;-58
2023/07/23 08:21:51;;;;;;;9.87;8.97;;;16.20;99.90;;;;;;5024671;28;20488;-57
2023/07/23 08:24:20;;;;;;;9.77;8.87;;;16.20;99.90;;;;;;5026773;28;20506;-58
2023/07/23 08:26:50;;;;;;;10.80;9.80;;;16.20;99.90;;;;;;5022545;28;20482;-60
2023/07/23 08:29:22;;;;;;;10.67;9.67;;;16.20;99.90;;;;;;5023947;28;21039;-58
2023/07/23 08:31:52;;;;;;;10.37;9.37;;;16.20;99.90;;;;;;5020811;28;20471;-58
2023/07/23 08:34:22;;;;;;;11.10;10.00;;;16.20;99.90;;;;;;5017270;28;20593;-60
2023/07/23 08:36:51;;;;;;;10.80;9.63;;;16.20;99.90;;;;;;5009092;28;20494;-58
2023/07/23 08:39:19;;;;;;;9.80;8.90;;;16.20;99.90;;;;;;5013976;28;20474;-58
2023/07/23 08:42:05;;;;;;;10.53;9.53;;;16.20;99.90;;;;;;5020808;28;20559;-58
2023/07/23 08:45:10;;;;;;;10.27;9.27;;;16.30;99.90;;;;;;5017374;28;20477;-58
2023/07/23 08:47:39;;;;;;;9.97;8.97;;;16.40;99.90;;;;;;5011604;28;20495;-59
2023/07/23 08:50:07;;;;;;;10.03;9.03;;;16.40;99.90;;;;;;5016199;28;20482;-58
2023/07/23 08:52:37;;;;;;;10.10;9.20;;;16.40;99.90;;;;;;5027177;28;20501;-59
2023/07/23 08:55:08;;;;;;;9.90;9.00;;;16.40;99.90;;;;;;5008158;28;21445;-59
2023/07/23 08:57:36;;;;;;;10.17;9.33;;;16.40;99.90;;;;;;5007881;28;20488;-59
2023/07/23 09:00:07;;;;;;;10.20;9.20;;;16.40;99.90;;;;;;5011501;28;20640;-60
2023/07/23 09:02:37;;;;;;;10.50;9.43;;;16.50;99.90;;;;;;5007891;28;22405;-59
2023/07/23 09:05:06;;;;;;;10.00;9.00;;;16.60;99.90;;;;;;5005477;28;20498;-59
2023/07/23 09:07:35;;;;;;;9.80;8.90;;;16.60;99.90;;;;;;5024807;28;20586;-59
2023/07/23 09:10:03;;;;;;;8.97;8.17;;;16.70;99.90;;;;;;5028002;28;20956;-59
2023/07/23 09:12:31;;;;;;;9.83;8.93;;;16.80;99.90;;;;;;5016389;28;20470;-59
2023/07/23 09:15:06;;;;;;;9.20;8.30;;;16.80;99.90;;;;;;5031166;28;21070;-58
2023/07/23 09:17:34;;;;;;;9.30;8.50;;;17.00;99.90;;;;;;5020159;28;23702;-59
2023/07/23 09:20:02;;;;;;;11.67;10.00;;;17.00;99.90;;;;;;5023395;28;20478;-59
2023/07/23 09:22:32;;;;;;;10.43;9.53;;;17.00;99.90;;;;;;5018689;28;20474;-60
2023/07/23 09:25:00;;;;;;;10.27;9.30;;;17.00;99.90;;;;;;5028783;28;20503;-59
2023/07/23 09:27:36;;;;;;;10.50;9.60;;;17.00;99.90;;;;;;5023308;28;20995;-63
2023/07/23 09:30:06;;;;;;;10.70;9.70;;;17.00;99.90;;;;;;5031367;28;20482;-62
2023/07/23 09:32:34;;;;;;;10.53;9.53;;;17.00;99.90;;;;;;5027157;28;20892;-64
2023/07/23 09:35:03;;;;;;;10.33;9.37;;;17.10;99.90;;;;;;5024434;28;20490;-64
2023/07/23 09:37:31;;;;;;;11.73;10.53;;;17.00;99.90;;;;;;5021239;28;20475;-60
2023/07/23 09:39:59;;;;;;;12.00;10.30;;;17.10;99.90;;;;;;5027206;28;20987;-61
2023/07/23 09:42:27;;;;;;;9.53;8.63;;;17.10;99.90;;;;;;5022328;28;20979;-63
2023/07/23 09:45:01;;;;;;;10.20;9.20;;;17.10;99.90;;;;;;5027216;28;21027;-64
2023/07/23 09:47:31;;;;;;;11.67;10.60;;;17.20;99.90;;;;;;5026117;28;20568;-64
2023/07/23 09:49:59;;;;;;;11.53;10.53;;;17.20;99.90;;;;;;5023659;28;22062;-63
2023/07/23 09:52:34;;;;;;;11.47;10.47;;;17.10;99.90;;;;;;5024480;28;21069;-63
2023/07/23 09:55:03;;;;;;;10.50;9.50;;;17.00;99.90;;;;;;5017725;28;21027;-64
2023/07/23 09:57:34;;;;;;;11.03;9.93;;;17.00;99.90;;;;;;5022236;28;21029;-61
2023/07/23 10:00:03;;;;;;;11.97;10.87;;;17.00;99.90;;;;;;5018167;28;20572;-62
2023/07/23 10:02:37;;;;;;;10.23;9.33;;;17.10;99.90;;;;;;5026812;28;20500;-64
2023/07/23 10:05:07;;;;;;;11.03;10.03;;;17.10;99.90;;;;;;5019182;28;21229;-65
2023/07/23 10:07:39;;;;;;;11.10;10.10;;;17.20;99.90;;;;;;5028684;28;20543;-64
2023/07/23 10:10:08;;;;;;;12.37;11.27;;;17.30;99.90;;;;;;5026711;28;20470;-65
2023/07/23 10:12:37;;;;;;;11.50;10.40;;;17.30;99.90;;;;;;5027058;28;20479;-61
2023/07/23 10:15:06;;;;;;;11.73;10.57;;;17.30;99.90;;;;;;5013305;28;20491;-63
2023/07/23 10:17:40;;;;;;;11.47;10.47;;;17.40;99.90;;;;;;5014591;28;20493;-63
2023/07/23 10:20:11;;;;;;;11.17;10.23;;;17.50;99.90;;;;;;5034887;28;20477;-60
2023/07/23 10:22:40;;;;;;;12.37;11.27;;;17.60;99.90;;;;;;5033306;28;20553;-61
2023/07/23 10:25:30;;;;;;;12.80;11.53;;;17.70;99.90;;;;;;5038427;28;20578;-61
2023/07/23 10:28:05;;;;;;;11.97;10.87;;;17.80;99.90;;;;;;5032573;28;20486;-61
2023/07/23 10:30:36;;;;;;;12.23;11.13;;;17.90;99.90;;;;;;5026873;28;21384;-60
2023/07/23 10:33:30;;;;;;;12.70;11.50;;;17.90;99.90;;;;;;5021126;28;20497;-60
2023/07/23 10:36:00;;;;;;;11.10;10.10;;;18.00;99.90;;;;;;5021883;28;20493;-60
2023/07/23 10:38:29;;;;;;;11.40;10.40;;;18.00;99.90;;;;;;5029748;28;20488;-63
2023/07/23 10:40:57;;;;;;;11.90;10.80;;;18.00;99.90;;;;;;5033111;28;21219;-61
2023/07/23 10:43:36;;;;;;;12.50;11.30;;;18.00;99.90;;;;;;5028009;28;20606;-60
2023/07/23 10:46:06;;;;;;;10.97;9.87;;;18.10;99.90;;;;;;5006487;28;20502;-61
2023/07/23 10:48:45;;;;;;;11.30;10.20;;;18.10;99.90;;;;;;5020715;28;20486;-59
2023/07/23 10:51:14;;;;;;;12.03;10.83;;;18.10;99.90;;;;;;5019364;28;20849;-59
2023/07/23 10:53:43;;;;;;;12.30;10.30;;;18.10;99.90;;;;;;5028564;28;20479;-62
2023/07/23 10:56:26;;;;;;;11.73;10.73;;;18.10;99.90;;;;;;5027447;28;20630;-61
2023/07/23 10:58:59;;;;;;;12.37;11.17;;;18.10;99.90;;;;;;5026665;28;20581;-62
2023/07/23 11:01:28;;;;;;;11.40;10.40;;;18.10;99.90;;;;;;5028406;28;20571;-62
2023/07/23 11:03:59;;;;;;;11.47;10.30;;;18.10;99.90;;;;;;5033998;28;20483;-63
2023/07/23 11:06:28;;;;;;;11.10;10.10;;;18.10;99.90;;;;;;5021938;28;20509;-62
2023/07/23 11:08:58;;;;;;;12.23;11.10;;;18.10;99.90;;;;;;5022895;28;20497;-62
2023/07/23 11:11:32;;;;;;;11.70;10.70;;;18.20;99.90;;;;;;5013307;28;20609;-62
2023/07/23 11:14:00;;;;;;;11.73;10.63;;;18.30;99.90;;;;;;5017913;28;20512;-62
2023/07/23 11:16:28;;;;;;;11.00;10.10;;;18.30;99.90;;;;;;5016081;28;20713;-62
2023/07/23 11:18:57;;;;;;;11.60;10.47;;;18.40;99.90;;;;;;5024133;28;20483;-61
2023/07/23 11:21:27;;;;;;;11.30;9.50;;;18.30;99.90;;;;;;5029160;28;20554;-61
2023/07/23 11:23:56;;;;;;;10.90;9.90;;;18.30;99.90;;;;;;5028174;28;20987;-59
2023/07/23 11:26:24;;;;;;;12.03;10.97;;;18.20;99.90;;;;;;5015458;28;20501;-59
2023/07/23 11:28:52;;;;;;;11.60;10.50;;;18.20;99.90;;;;;;5028551;28;20874;-59
2023/07/23 11:31:22;;;;;;;11.10;10.20;;;18.10;99.90;;;;;;5024851;28;20563;-61
2023/07/23 11:33:50;;;;;;;11.13;10.03;;;18.10;99.90;;;;;;5027668;28;20824;-61
2023/07/23 11:36:20;;;;;;;13.30;10.20;;;18.00;99.90;;;;;;5025822;28;20495;-62
2023/07/23 11:38:54;;;;;;;11.93;10.83;;;18.00;99.90;;;;;;5027523;28;20566;-62
2023/07/23 11:41:28;;;;;;;12.30;11.10;;;18.00;99.90;;;;;;5020678;28;20988;-65
2023/07/23 11:44:06;;;;;;;10.83;9.83;;;18.00;99.90;;;;;;5026829;28;20471;-62
2023/07/23 11:46:35;;;;;;;12.00;10.90;;;18.00;99.90;;;;;;5026917;28;20519;-62
2023/07/23 11:49:06;;;;;;;12.20;10.90;;;18.00;99.90;;;;;;5011111;28;20664;-62
2023/07/23 11:51:36;;;;;;;11.87;10.80;;;18.00;99.90;;;;;;5019588;28;20482;-62
2023/07/23 11:54:07;;;;;;;11.87;10.67;;;17.90;99.90;;;;;;5008554;28;21000;-62
2023/07/23 11:56:36;;;;;;;10.53;9.60;;;17.90;99.90;;;;;;5015367;28;21427;-62
2023/07/23 11:59:05;;;;;;;11.27;10.00;;;17.80;99.90;;;;;;5016776;28;20487;-61
2023/07/23 12:01:35;;;;;;;10.57;9.60;;;17.70;99.90;;;;;;5024196;28;20473;-62
2023/07/23 12:04:04;;;;;;;11.93;10.10;;;17.60;99.90;;;;;;5020506;28;20706;-61
2023/07/23 12:06:33;;;;;;;9.00;8.20;;;17.60;99.90;;;;;;5013830;28;20972;-62
2023/07/23 12:09:06;;;;;;;9.00;8.10;;;17.50;99.90;;;;;;5019056;28;20496;-61
2023/07/23 12:11:34;;;;;;;9.27;8.27;;;17.50;99.90;;;;;;5017649;28;20980;-61
2023/07/23 12:14:05;;;;;;;9.13;7.70;;;17.60;99.90;;;;;;5023226;28;20479;-61
2023/07/23 12:16:37;;;;;;;9.27;8.37;;;17.60;99.90;;;;;;5025599;28;20939;-62
2023/07/23 12:19:07;;;;;;;9.33;8.37;;;17.80;99.90;;;;;;5011122;28;20806;-61
2023/07/23 12:21:37;;;;;;;9.13;8.30;;;17.80;99.90;;;;;;5023674;28;20562;-61
2023/07/23 12:24:17;;;;;;;10.10;9.27;;;17.80;99.90;;;;;;5022021;28;20510;-62
2023/07/23 12:26:47;;;;;;;9.93;9.13;;;17.80;99.90;;;;;;5010471;28;20567;-62
2023/07/23 12:29:16;;;;;;;9.43;8.53;;;17.70;99.90;;;;;;5020138;28;21095;-62
2023/07/23 12:31:46;;;;;;;9.70;8.90;;;17.70;99.90;;;;;;5012265;28;20564;-62
2023/07/23 12:34:15;;;;;;;10.13;9.23;;;17.70;99.90;;;;;;5028014;28;20470;-61
2023/07/23 12:36:44;;;;;;;9.80;9.00;;;17.60;99.90;;;;;;5010120;28;20887;-61
2023/07/23 12:39:12;;;;;;;10.93;9.93;;;17.60;99.90;;;;;;5006911;28;20514;-61
2023/07/23 12:41:41;;;;;;;10.00;9.00;;;17.50;99.90;;;;;;5019232;28;21158;-61
2023/07/23 12:44:09;;;;;;;10.80;9.80;;;17.40;99.90;;;;;;5008771;28;20558;-61